Time;durP1;ratioP1;P1;durP2;ratioP2;P2;SDS_P1;SDS_P2;PMS_P1;PMS_P2;Temp;Humidity;BMP_temperature;BMP_pressure;BME280_temperature;BME280_humidity;BME280_pressure;Samples;Min_cycle;Max_cycle;Signal;HPM_P1;HPM_P2
2021/07/15 00:01:37;;;;;;;46.45;22.27;;;;;;;20.20;86.96;94422.84;1655390;86;21077;-52
2021/07/15 00:04:04;;;;;;;44.70;22.82;;;;;;;20.17;86.87;94419.69;1653620;86;20978;-53
2021/07/15 00:06:31;;;;;;;40.65;20.30;;;;;;;20.13;86.95;94417.04;1650658;86;21460;-52
2021/07/15 00:09:01;;;;;;;46.13;21.62;;;;;;;20.11;87.00;94421.73;1653570;86;20951;-53
2021/07/15 00:11:29;;;;;;;42.53;20.88;;;;;;;20.08;87.13;94424.82;1654731;85;21013;-53
2021/07/15 00:13:58;;;;;;;43.60;21.12;;;;;;;20.01;87.27;94423.30;1655862;85;21105;-53
2021/07/15 00:16:26;;;;;;;37.15;22.37;;;;;;;20.01;87.56;94423.30;1668437;85;21040;-53
2021/07/15 00:18:54;;;;;;;39.30;21.85;;;;;;;20.00;87.62;94425.97;1718486;83;20966;-53
2021/07/15 00:21:23;;;;;;;41.75;21.62;;;;;;;20.00;87.50;94427.37;1717038;83;21053;-52
2021/07/15 00:23:51;;;;;;;37.30;21.17;;;;;;;20.00;87.54;94420.38;1715208;82;20978;-56
2021/07/15 00:26:21;;;;;;;32.45;20.57;;;;;;;20.06;87.48;94425.95;1717652;83;21053;-53
2021/07/15 00:28:50;;;;;;;38.90;24.15;;;;;;;20.09;87.10;94421.49;1716968;83;21023;-52
2021/07/15 00:31:18;;;;;;;47.43;25.40;;;;;;;20.12;86.89;94420.45;1716312;83;21010;-52
2021/07/15 00:33:45;;;;;;;42.10;23.62;;;;;;;20.14;86.91;94427.05;1718244;83;21119;-53
2021/07/15 00:36:13;;;;;;;33.85;20.45;;;;;;;20.17;86.68;94425.27;1716141;83;20994;-52
2021/07/15 00:38:41;;;;;;;38.30;19.82;;;;;;;20.18;86.39;94419.16;1718281;83;21050;-53
2021/07/15 00:41:09;;;;;;;28.10;20.62;;;;;;;20.16;85.93;94425.16;1713793;83;20994;-54
2021/07/15 00:43:38;;;;;;;30.60;21.40;;;;;;;20.13;85.98;94424.77;1637673;86;21101;-53
2021/07/15 00:46:06;;;;;;;30.55;20.45;;;;;;;20.12;85.82;94420.45;1655567;84;21554;-53
2021/07/15 00:48:33;;;;;;;32.53;22.35;;;;;;;20.09;85.92;94424.28;1663362;86;20986;-53
2021/07/15 00:51:06;;;;;;;28.85;18.32;;;;;;;20.08;86.04;94422.77;1658434;84;21035;-53
2021/07/15 00:53:33;;;;;;;23.92;17.23;;;;;;;20.02;86.11;94423.45;1606770;87;20994;-53
2021/07/15 00:56:00;;;;;;;32.10;20.45;;;;;;;19.91;86.40;94429.05;1658357;84;21010;-53
2021/07/15 00:58:28;;;;;;;32.73;20.92;;;;;;;19.79;86.67;94426.20;1657343;83;21058;-53
2021/07/15 01:00:57;;;;;;;32.15;20.08;;;;;;;19.72;87.18;94425.98;1684585;83;21110;-53
2021/07/15 01:03:23;;;;;;;31.17;19.45;;;;;;;19.68;87.51;94427.63;1687280;84;21455;-55
2021/07/15 01:05:54;;;;;;;32.40;18.80;;;;;;;19.66;87.85;94416.84;1686509;84;21554;-52
2021/07/15 01:08:21;;;;;;;35.85;20.62;;;;;;;19.65;87.89;94421.69;1688489;83;20987;-52
2021/07/15 01:10:54;;;;;;;30.30;20.80;;;;;;;19.63;88.08;94420.67;1681856;83;21092;-53
2021/07/15 01:13:47;;;;;;;38.10;21.62;;;;;;;19.63;88.08;94415.86;1680034;84;21431;-53
2021/07/15 01:16:26;;;;;;;34.95;21.07;;;;;;;19.65;87.85;94418.89;1684216;84;21090;-53
2021/07/15 01:19:06;;;;;;;32.03;20.85;;;;;;;19.62;87.69;94418.53;1694349;83;20967;-53
2021/07/15 01:22:10;;;;;;;32.83;22.48;;;;;;;19.58;87.74;94415.22;1690603;83;21057;-52
2021/07/15 01:25:25;;;;;;;32.17;20.65;;;;;;;19.56;87.80;94416.38;1690824;83;21052;-53
2021/07/15 01:28:10;;;;;;;36.80;21.62;;;;;;;19.54;87.83;94416.13;1687001;83;21416;-54
2021/07/15 01:30:45;;;;;;;35.52;21.10;;;;;;;19.47;87.79;94418.69;1688970;83;21360;-52
2021/07/15 01:33:23;;;;;;;37.48;21.55;;;;;;;19.41;87.97;94421.49;1680147;85;20971;-52
2021/07/15 01:36:12;;;;;;;34.13;21.07;;;;;;;19.37;88.33;94427.98;1684840;83;20978;-52
2021/07/15 01:38:44;;;;;;;38.95;22.48;;;;;;;19.36;88.44;94423.67;1696653;83;21149;-52
2021/07/15 01:41:14;;;;;;;34.67;20.15;;;;;;;19.35;88.65;94422.16;1691518;82;21099;-52
2021/07/15 01:43:49;;;;;;;32.88;19.25;;;;;;;19.40;88.36;94424.81;1706644;84;20967;-52
2021/07/15 01:46:15;;;;;;;32.13;20.37;;;;;;;19.41;88.00;94421.49;1706826;83;20943;-53
2021/07/15 01:48:43;;;;;;;36.42;21.40;;;;;;;19.45;87.97;94430.37;1686641;84;21433;-53
2021/07/15 01:51:10;;;;;;;43.05;24.27;;;;;;;19.47;88.02;94423.65;1693100;83;21050;-53
2021/07/15 01:53:37;;;;;;;29.10;20.00;;;;;;;19.47;88.06;94426.44;1707866;83;21015;-53
2021/07/15 01:56:06;;;;;;;27.35;18.85;;;;;;;19.44;87.60;94426.70;1719913;83;20963;-53
2021/07/15 01:58:36;;;;;;;27.70;18.05;;;;;;;19.37;87.52;94425.84;1709563;83;21058;-53
2021/07/15 02:01:05;;;;;;;35.65;20.97;;;;;;;19.35;87.66;94426.98;1709566;83;20991;-52
2021/07/15 02:03:32;;;;;;;28.90;19.25;;;;;;;19.33;87.72;94423.30;1709932;83;21131;-53
2021/07/15 02:05:58;;;;;;;37.53;22.58;;;;;;;19.32;87.76;94425.97;1721658;83;20998;-55
2021/07/15 02:08:25;;;;;;;56.37;20.68;;;;;;;19.31;87.90;94425.84;1714216;82;20994;-53
2021/07/15 02:10:53;;;;;;;27.73;19.75;;;;;;;19.28;87.87;94432.45;1678668;84;21002;-54
2021/07/15 02:13:22;;;;;;;29.52;21.00;;;;;;;19.24;87.98;94424.98;1653413;85;20991;-52
2021/07/15 02:15:51;;;;;;;35.65;22.42;;;;;;;19.20;88.40;94424.47;1662542;85;21897;-53
2021/07/15 02:18:22;;;;;;;33.85;22.10;;;;;;;19.22;88.40;94433.08;1613323;86;21030;-53
2021/07/15 02:20:52;;;;;;;34.45;21.17;;;;;;;19.22;88.11;94430.94;1662455;86;21086;-52
2021/07/15 02:23:21;;;;;;;30.68;19.37;;;;;;;19.20;88.17;94425.86;1662552;85;20927;-53
2021/07/15 02:25:51;;;;;;;36.55;22.98;;;;;;;19.20;87.97;94428.65;1673446;85;21050;-53
2021/07/15 02:28:20;;;;;;;40.60;23.12;;;;;;;19.18;87.88;94431.19;1674700;85;21562;-53
2021/07/15 02:30:51;;;;;;;38.75;22.65;;;;;;;19.17;88.09;94423.35;1674630;85;21041;-52
2021/07/15 02:33:20;;;;;;;29.90;20.00;;;;;;;19.16;87.98;94425.37;1674694;85;21612;-52
2021/07/15 02:35:49;;;;;;;33.23;19.35;;;;;;;19.15;87.95;94419.64;1674723;85;21061;-53
2021/07/15 02:38:19;;;;;;;34.45;22.22;;;;;;;19.13;87.85;94421.41;1674913;85;21401;-52
2021/07/15 02:40:46;;;;;;;32.75;23.22;;;;;;;19.13;88.17;94423.58;1674663;85;21744;-52
2021/07/15 02:43:14;;;;;;;31.52;22.05;;;;;;;19.14;87.96;94426.48;1647375;85;20959;-52
2021/07/15 02:45:42;;;;;;;30.48;21.25;;;;;;;19.12;87.84;94422.06;1645156;87;21574;-53
2021/07/15 02:48:12;;;;;;;25.12;17.65;;;;;;;19.08;87.86;94420.79;1645230;86;21499;-53
2021/07/15 02:50:39;;;;;;;25.90;17.85;;;;;;;19.04;87.84;94421.04;1645361;87;21030;-53
2021/07/15 02:53:06;;;;;;;27.45;18.65;;;;;;;19.03;87.86;94421.56;1645355;87;21895;-53
2021/07/15 02:55:34;;;;;;;25.85;20.00;;;;;;;19.03;87.94;94422.31;1626712;87;20963;-51
2021/07/15 02:58:25;;;;;;;29.37;20.27;;;;;;;19.03;87.91;94425.09;1639901;86;20958;-56
2021/07/15 03:00:57;;;;;;;33.75;20.02;;;;;;;19.02;87.81;94426.37;1616894;86;21000;-54
2021/07/15 03:03:56;;;;;;;36.15;18.73;;;;;;;18.96;87.82;94420.67;1634946;85;21084;-51
2021/07/15 03:06:37;;;;;;;38.73;21.60;;;;;;;18.94;88.14;94419.80;1681940;83;21150;-65
2021/07/15 03:09:11;;;;;;;31.48;19.70;;;;;;;18.98;88.09;94423.09;1684201;83;20936;-55
2021/07/15 03:11:45;;;;;;;36.75;20.65;;;;;;;19.00;87.99;94426.12;1688038;84;21164;-55
2021/07/15 03:14:13;;;;;;;29.72;18.92;;;;;;;19.02;88.03;94421.44;1684826;84;21420;-58
2021/07/15 03:16:43;;;;;;;26.17;17.45;;;;;;;19.07;88.08;94422.83;1680943;84;20959;-59
2021/07/15 03:19:12;;;;;;;26.57;19.10;;;;;;;19.09;88.06;94425.87;1687015;84;21714;-58
2021/07/15 03:21:42;;;;;;;43.40;20.02;;;;;;;19.13;87.84;94428.38;1685695;84;21014;-58
2021/07/15 03:24:11;;;;;;;23.00;17.48;;;;;;;19.11;87.64;94418.37;1639303;85;21025;-58
2021/07/15 03:26:39;;;;;;;22.15;16.97;;;;;;;19.14;87.67;94420.91;1686840;84;21002;-59
2021/07/15 03:29:08;;;;;;;23.70;17.52;;;;;;;19.21;87.79;94424.59;1684776;84;21007;-58
2021/07/15 03:31:35;;;;;;;28.70;18.45;;;;;;;19.29;87.50;94417.85;1630795;86;21163;-57
2021/07/15 03:34:03;;;;;;;32.70;20.57;;;;;;;19.30;87.40;94423.56;1648855;86;21050;-51
2021/07/15 03:36:32;;;;;;;27.52;20.30;;;;;;;19.34;86.96;94427.61;1642771;86;21103;-52
2021/07/15 03:39:00;;;;;;;30.25;20.20;;;;;;;19.31;86.60;94427.86;1642198;86;21066;-52
2021/07/15 03:41:26;;;;;;;26.30;18.23;;;;;;;19.25;86.72;94422.32;1648146;85;21114;-50
2021/07/15 03:43:53;;;;;;;28.45;18.23;;;;;;;19.25;86.82;94429.30;1638822;87;21143;-50
2021/07/15 03:46:22;;;;;;;34.43;20.02;;;;;;;19.27;86.97;94423.96;1618623;87;21070;-50
2021/07/15 03:48:49;;;;;;;36.63;21.25;;;;;;;19.30;87.21;94427.73;1638900;87;21070;-50
2021/07/15 03:51:17;;;;;;;38.35;18.77;;;;;;;19.33;87.18;94421.91;1672207;85;21086;-50
2021/07/15 03:53:45;;;;;;;29.25;20.72;;;;;;;19.33;87.22;94416.33;1674999;85;20944;-49
2021/07/15 03:56:14;;;;;;;30.40;19.70;;;;;;;19.34;87.30;94419.23;1674846;85;20975;-50
2021/07/15 03:58:44;;;;;;;26.87;21.07;;;;;;;19.36;87.41;94418.09;1674793;85;21643;-50
2021/07/15 04:01:12;;;;;;;33.42;20.55;;;;;;;19.36;87.58;94416.70;1674906;85;21510;-50
2021/07/15 04:03:40;;;;;;;31.40;21.57;;;;;;;19.40;87.89;94411.60;1675002;85;21070;-49
2021/07/15 04:06:08;;;;;;;33.92;21.62;;;;;;;19.47;87.83;94406.13;1648163;85;21068;-49
2021/07/15 04:08:38;;;;;;;27.45;20.25;;;;;;;19.55;87.80;94415.51;1674836;85;21093;-50
2021/07/15 04:11:06;;;;;;;25.48;18.12;;;;;;;19.63;87.85;94417.88;1674649;85;20971;-50
2021/07/15 04:13:34;;;;;;;29.35;19.87;;;;;;;19.72;87.82;94416.20;1674873;85;20993;-50
2021/07/15 04:16:46;;;;;;;29.63;20.23;;;;;;;19.79;87.43;94422.63;1674733;85;20990;-50
2021/07/15 04:19:13;;;;;;;27.20;17.52;;;;;;;19.84;87.24;94421.22;1674788;85;21034;-51
2021/07/15 04:21:42;;;;;;;21.82;17.17;;;;;;;19.91;87.00;94423.46;1674745;85;21070;-50
2021/07/15 04:24:09;;;;;;;26.20;18.37;;;;;;;19.96;86.67;94424.06;1648093;85;21482;-49
2021/07/15 04:26:36;;;;;;;25.08;17.98;;;;;;;20.01;86.45;94424.70;1674842;85;21034;-50
2021/07/15 04:29:03;;;;;;;22.27;17.90;;;;;;;20.05;86.29;94429.39;1674771;85;21005;-51
2021/07/15 04:31:56;;;;;;;25.15;18.42;;;;;;;20.07;86.22;94421.25;1674967;85;21078;-50
2021/07/15 04:34:24;;;;;;;25.75;19.57;;;;;;;20.13;86.09;94423.37;1624392;88;23247;-50
2021/07/15 04:36:51;;;;;;;32.23;17.15;;;;;;;20.23;85.87;94421.80;1624442;88;20970;-50
2021/07/15 04:39:18;;;;;;;33.00;18.50;;;;;;;20.33;85.56;94418.80;1624519;87;21019;-50
2021/07/15 04:41:45;;;;;;;23.02;18.25;;;;;;;20.44;85.27;94415.94;1632843;85;21443;-50
2021/07/15 04:44:13;;;;;;;27.67;19.25;;;;;;;20.57;85.11;94417.50;1651017;86;20979;-51
2021/07/15 04:46:41;;;;;;;25.30;19.05;;;;;;;20.70;84.85;94408.63;1652024;86;21228;-50
2021/07/15 04:49:10;;;;;;;22.15;18.37;;;;;;;20.83;84.44;94413.60;1664953;84;38784;-60
2021/07/15 04:51:41;;;;;;;25.00;18.50;;;;;;;20.92;84.03;94411.91;1679579;84;20995;-50
2021/07/15 04:54:09;;;;;;;20.85;17.67;;;;;;;21.02;83.54;94408.88;1694355;83;20988;-50
2021/07/15 04:56:36;;;;;;;23.85;17.55;;;;;;;21.10;82.46;94407.78;1695474;83;21003;-50
2021/07/15 04:59:05;;;;;;;23.70;17.07;;;;;;;21.15;81.75;94402.77;1667330;85;21059;-50
2021/07/15 05:01:36;;;;;;;23.02;16.87;;;;;;;21.18;81.13;94399.58;1679978;83;20955;-51
2021/07/15 05:04:04;;;;;;;26.77;17.65;;;;;;;21.23;80.58;94402.33;1684796;83;20967;-60
2021/07/15 05:06:31;;;;;;;21.52;18.07;;;;;;;21.29;80.03;94409.27;1683177;83;21116;-50
2021/07/15 05:08:58;;;;;;;23.52;17.40;;;;;;;21.34;79.69;94404.25;1678519;84;21019;-52
2021/07/15 05:11:25;;;;;;;34.95;17.92;;;;;;;21.37;79.54;94403.19;1684585;84;21828;-51
2021/07/15 05:13:52;;;;;;;24.50;17.30;;;;;;;21.41;79.30;94403.65;1690094;83;21459;-51
2021/07/15 05:16:19;;;;;;;21.82;16.37;;;;;;;21.42;79.10;94404.53;1695305;83;21026;-51
2021/07/15 05:18:46;;;;;;;22.13;17.12;;;;;;;21.48;78.98;94398.88;1658620;84;21446;-52
2021/07/15 05:21:13;;;;;;;23.77;17.27;;;;;;;21.52;78.81;94395.14;1685435;83;20971;-52
2021/07/15 05:23:39;;;;;;;23.95;16.20;;;;;;;21.56;78.58;94394.20;1674900;84;21150;-53
2021/07/15 05:26:07;;;;;;;23.18;15.50;;;;;;;21.66;78.45;94402.39;1676804;83;21026;-55
2021/07/15 05:28:33;;;;;;;21.85;17.05;;;;;;;21.73;77.94;94394.16;1680464;83;21022;-58
2021/07/15 05:31:02;;;;;;;18.87;16.85;;;;;;;21.81;77.67;94394.33;1689794;83;21057;-53
2021/07/15 05:33:29;;;;;;;25.85;17.73;;;;;;;21.87;77.40;94394.34;1654045;84;21454;-51
2021/07/15 05:35:56;;;;;;;25.02;16.25;;;;;;;21.96;77.16;94402.39;1659410;84;21177;-52
2021/07/15 05:38:25;;;;;;;20.30;15.10;;;;;;;22.02;76.40;94402.33;1670837;83;21123;-55
2021/07/15 05:40:52;;;;;;;25.80;15.80;;;;;;;22.09;76.15;94393.42;1703567;82;21191;-53
2021/07/15 05:43:19;;;;;;;19.27;15.38;;;;;;;22.17;75.66;94378.92;1705774;82;21021;-55
2021/07/15 05:45:46;;;;;;;17.60;15.32;;;;;;;22.29;74.99;94397.73;1665555;84;21030;-56
2021/07/15 05:48:13;;;;;;;21.07;16.50;;;;;;;22.35;74.82;94383.77;1686000;83;21740;-56
2021/07/15 05:50:40;;;;;;;21.48;16.90;;;;;;;22.43;74.48;94383.27;1691915;82;21069;-54
2021/07/15 05:53:07;;;;;;;20.32;15.18;;;;;;;22.54;74.09;94391.53;1607862;84;21083;-51
2021/07/15 05:55:34;;;;;;;31.57;16.20;;;;;;;22.63;73.58;94388.97;1682964;83;21412;-52
2021/07/15 05:58:01;;;;;;;17.00;14.25;;;;;;;22.74;72.95;94383.94;1678789;83;21093;-55
2021/07/15 06:00:28;;;;;;;26.07;17.27;;;;;;;22.85;72.62;94383.73;1701608;82;21056;-50
2021/07/15 06:02:55;;;;;;;22.67;16.57;;;;;;;22.96;72.20;94382.80;1681530;84;21042;-54
2021/07/15 06:05:22;;;;;;;31.23;17.62;;;;;;;23.07;71.71;94384.78;1695234;83;21140;-50
2021/07/15 06:07:52;;;;;;;29.35;15.90;;;;;;;23.18;71.73;94381.80;1671587;83;21121;-53
2021/07/15 06:10:19;;;;;;;19.87;14.28;;;;;;;23.31;71.32;94367.78;1687489;83;20982;-58
2021/07/15 06:12:46;;;;;;;22.87;15.80;;;;;;;23.44;71.13;94367.80;1690823;83;21138;-54
2021/07/15 06:15:13;;;;;;;30.70;16.02;;;;;;;23.58;70.79;94374.91;1682726;83;21073;-53
2021/07/15 06:17:40;;;;;;;22.00;15.13;;;;;;;23.67;70.20;94364.66;1667891;83;21095;-56
2021/07/15 06:20:12;;;;;;;26.95;15.83;;;;;;;23.74;69.63;94361.84;1673624;82;22281;-62
2021/07/15 06:22:46;;;;;;;28.40;16.07;;;;;;;23.78;69.42;94355.98;1655119;84;21464;-54
2021/07/15 06:25:14;;;;;;;22.25;15.05;;;;;;;23.87;69.11;94359.02;1676783;84;21345;-56
2021/07/15 06:27:42;;;;;;;35.58;15.65;;;;;;;23.98;69.00;94358.80;1686094;83;21035;-53
2021/07/15 06:30:11;;;;;;;21.48;14.18;;;;;;;24.07;68.74;94364.09;1683664;82;21033;-57
2021/07/15 06:32:38;;;;;;;20.92;16.27;;;;;;;24.19;68.48;94360.37;1686619;82;21624;-59
2021/07/15 06:35:07;;;;;;;19.45;14.47;;;;;;;24.30;68.09;94359.47;1690667;82;21721;-54
2021/07/15 06:37:37;;;;;;;28.98;17.12;;;;;;;24.41;67.64;94351.43;1678823;83;21110;-63
2021/07/15 06:40:07;;;;;;;33.70;17.75;;;;;;;24.53;67.04;94354.13;1684368;83;21121;-58
2021/07/15 06:42:34;;;;;;;30.57;17.30;;;;;;;24.65;67.10;94352.55;1680752;83;21966;-59
2021/07/15 06:45:03;;;;;;;22.50;15.80;;;;;;;24.80;66.53;94345.02;1655726;84;21019;-62
2021/07/15 06:47:29;;;;;;;19.07;15.43;;;;;;;24.94;65.40;94348.51;1680190;84;21708;-57
2021/07/15 06:49:58;;;;;;;20.57;14.95;;;;;;;25.04;65.09;94343.24;1678591;83;21163;-62
2021/07/15 06:52:29;;;;;;;23.52;15.88;;;;;;;25.15;63.96;94336.56;1684098;83;21128;-55
2021/07/15 06:54:54;;;;;;;25.10;15.13;;;;;;;25.27;63.89;94344.19;1694801;82;21017;-56
2021/07/15 06:57:21;;;;;;;20.72;13.40;;;;;;;25.36;63.32;94339.48;1687341;82;21065;-68
2021/07/15 06:59:48;;;;;;;22.50;15.63;;;;;;;25.47;62.96;94335.61;1692568;82;21072;-57
2021/07/15 07:02:15;;;;;;;22.80;16.85;;;;;;;25.61;63.40;94328.53;1693187;83;21148;-62
2021/07/15 07:04:43;;;;;;;21.55;15.78;;;;;;;25.78;63.35;94331.63;1683331;83;21027;-58
2021/07/15 07:07:10;;;;;;;25.62;16.62;;;;;;;25.89;63.07;94327.12;1686213;82;21061;-63
2021/07/15 07:09:38;;;;;;;27.77;15.03;;;;;;;26.01;62.49;94327.64;1676337;83;21125;-58
2021/07/15 07:12:06;;;;;;;26.20;16.37;;;;;;;26.10;61.60;94332.77;1683981;83;21021;-62
2021/07/15 07:14:34;;;;;;;24.10;15.60;;;;;;;26.17;61.60;94330.63;1698451;82;21855;-58
2021/07/15 07:17:02;;;;;;;22.20;15.30;;;;;;;26.26;61.57;94329.42;1684055;82;21045;-66
2021/07/15 07:19:28;;;;;;;27.35;14.15;;;;;;;26.38;61.09;94329.19;1682933;83;21517;-56
2021/07/15 07:21:56;;;;;;;21.15;15.53;;;;;;;26.47;60.65;94325.81;1688501;82;21112;-59
2021/07/15 07:24:23;;;;;;;18.57;13.72;;;;;;;26.56;60.25;94327.37;1685253;82;21144;-57
2021/07/15 07:26:50;;;;;;;21.77;14.33;;;;;;;26.65;59.77;94314.13;1683659;83;21074;-64
2021/07/15 07:29:16;;;;;;;22.73;13.98;;;;;;;26.78;59.13;94324.59;1691955;83;21096;-56
2021/07/15 07:31:43;;;;;;;22.58;15.45;;;;;;;26.92;59.39;94321.69;1660054;84;21088;-60
2021/07/15 07:34:10;;;;;;;21.10;14.38;;;;;;;27.07;59.50;94321.67;1640423;87;21070;-58
2021/07/15 07:36:37;;;;;;;18.23;14.28;;;;;;;27.24;59.40;94321.14;1634360;86;20989;-66
2021/07/15 07:39:04;;;;;;;23.07;14.78;;;;;;;27.42;59.07;94317.91;1644724;85;21140;-57
2021/07/15 07:41:33;;;;;;;24.02;14.53;;;;;;;27.56;58.46;94317.05;1656206;84;21077;-56
2021/07/15 07:44:00;;;;;;;21.15;14.35;;;;;;;27.67;57.17;94320.23;1654273;85;21241;-59
2021/07/15 07:46:27;;;;;;;19.37;13.53;;;;;;;27.73;56.54;94315.14;1631182;86;21029;-64
2021/07/15 07:48:54;;;;;;;17.98;14.83;;;;;;;27.79;55.72;94314.95;1645370;85;21089;-56
2021/07/15 07:51:21;;;;;;;25.68;15.83;;;;;;;27.86;55.23;94314.93;1646058;85;21149;-61
2021/07/15 07:53:47;;;;;;;24.52;12.98;;;;;;;27.95;54.47;94309.42;1648278;84;21025;-64
2021/07/15 07:56:16;;;;;;;16.02;12.55;;;;;;;28.07;54.23;94305.52;1638977;84;21155;-61
2021/07/15 07:58:45;;;;;;;15.55;12.23;;;;;;;28.17;53.09;94301.50;1626398;85;21057;-62
2021/07/15 08:01:12;;;;;;;20.68;12.68;;;;;;;28.33;52.52;94297.95;1650127;85;21121;-58
2021/07/15 08:03:39;;;;;;;20.32;12.68;;;;;;;28.46;51.62;94296.28;1647621;85;21174;-59
2021/07/15 08:06:07;;;;;;;19.35;11.90;;;;;;;28.55;50.74;94297.09;1658277;85;21150;-62
2021/07/15 08:08:35;;;;;;;20.30;13.18;;;;;;;28.66;50.43;94299.45;1678612;84;20987;-59
2021/07/15 08:11:02;;;;;;;15.15;11.08;;;;;;;28.76;50.23;94291.86;1701172;82;21022;-61
2021/07/15 08:13:29;;;;;;;13.48;11.78;;;;;;;28.86;49.62;94292.71;1700878;82;21009;-57
2021/07/15 08:15:57;;;;;;;15.40;11.83;;;;;;;28.96;49.48;94296.45;1685403;83;21107;-60
2021/07/15 08:18:26;;;;;;;14.07;11.00;;;;;;;29.07;49.15;94288.23;1692373;83;21018;-56
2021/07/15 08:20:53;;;;;;;13.40;10.93;;;;;;;29.19;48.20;94282.84;1697182;83;21033;-63
2021/07/15 08:23:19;;;;;;;15.05;11.45;;;;;;;29.31;47.73;94279.63;1699750;83;21082;-59
2021/07/15 08:25:46;;;;;;;16.85;11.97;;;;;;;29.45;47.23;94282.20;1681146;84;21033;-59
2021/07/15 08:28:13;;;;;;;13.05;10.20;;;;;;;29.60;46.94;94282.09;1659848;85;21333;-61
2021/07/15 08:30:40;;;;;;;14.95;10.63;;;;;;;29.74;46.13;94288.28;1684465;83;21163;-57
2021/07/15 08:33:07;;;;;;;11.50;10.28;;;;;;;29.88;46.26;94284.44;1689887;83;21018;-61
2021/07/15 08:35:34;;;;;;;16.97;11.03;;;;;;;30.00;45.82;94284.76;1688603;82;21017;-62
2021/07/15 08:38:01;;;;;;;14.53;10.68;;;;;;;30.10;45.38;94280.69;1689957;83;21118;-56
2021/07/15 08:40:28;;;;;;;13.03;10.78;;;;;;;30.25;44.99;94277.66;1682228;83;21282;-59
2021/07/15 08:42:55;;;;;;;14.33;10.20;;;;;;;30.39;44.45;94277.38;1685242;84;21456;-59
2021/07/15 08:45:22;;;;;;;15.13;10.48;;;;;;;30.58;44.59;94271.08;1681708;84;21142;-57
2021/07/15 08:47:49;;;;;;;15.00;9.85;;;;;;;30.76;43.74;94271.86;1681671;84;20987;-57
2021/07/15 08:50:17;;;;;;;22.48;11.05;;;;;;;30.93;43.46;94273.86;1691090;83;21734;-58
2021/07/15 08:52:45;;;;;;;12.05;10.03;;;;;;;31.08;42.46;94264.41;1655043;84;21804;-57
2021/07/15 08:57:40;;;;;;;13.03;9.90;;;;;;;31.37;42.97;94251.06;1708212;82;21089;-57
2021/07/15 09:00:10;;;;;;;10.38;9.40;;;;;;;31.56;42.73;94256.05;1714445;83;21478;-56
2021/07/15 09:02:37;;;;;;;13.60;9.73;;;;;;;31.73;41.48;94248.80;1700882;82;21068;-54
2021/07/15 09:05:08;;;;;;;14.50;10.63;;;;;;;31.85;40.87;94249.05;1693675;82;21077;-64
2021/07/15 09:07:41;;;;;;;12.95;10.60;;;;;;;31.93;41.07;94248.91;1691641;82;21024;-53
2021/07/15 09:10:10;;;;;;;14.70;9.70;;;;;;;32.04;39.97;94250.47;1680990;83;21171;-52
2021/07/15 09:12:39;;;;;;;15.48;9.73;;;;;;;32.18;40.23;94248.67;1689397;83;20995;-58
2021/07/15 09:15:11;;;;;;;11.38;10.18;;;;;;;32.26;40.96;94250.70;1695255;82;21033;-57
2021/07/15 09:17:39;;;;;;;14.30;10.40;;;;;;;32.37;41.46;94255.76;1688711;82;21022;-61
2021/07/15 09:20:11;;;;;;;16.90;10.93;;;;;;;32.48;41.46;94246.60;1682672;83;21041;-56
2021/07/15 09:23:06;;;;;;;13.03;9.95;;;;;;;32.60;41.02;94258.88;1692077;83;21057;-60
2021/07/15 09:25:43;;;;;;;12.40;10.50;;;;;;;32.67;41.62;94249.40;1697436;82;21021;-58
2021/07/15 09:28:12;;;;;;;15.05;11.25;;;;;;;32.73;41.55;94250.61;1692931;81;21438;-59
2021/07/15 09:30:42;;;;;;;14.63;11.85;;;;;;;32.80;41.43;94250.37;1689109;83;21014;-57
2021/07/15 09:33:11;;;;;;;13.53;11.80;;;;;;;32.92;41.63;94245.50;1692358;82;21061;-57
2021/07/15 09:35:41;;;;;;;18.70;11.68;;;;;;;33.02;40.44;94241.28;1681825;83;21006;-56
2021/07/15 09:38:21;;;;;;;13.83;10.10;;;;;;;33.10;41.03;94246.77;1685126;83;21118;-62
2021/07/15 09:40:57;;;;;;;17.90;10.85;;;;;;;33.15;39.46;94247.14;1675535;84;21064;-57
2021/07/15 09:43:39;;;;;;;12.00;10.65;;;;;;;33.19;39.62;94246.78;1683672;83;21134;-60
2021/07/15 09:46:17;;;;;;;11.57;10.35;;;;;;;33.24;41.05;94247.13;1684172;83;21046;-61
2021/07/15 09:49:04;;;;;;;16.82;10.82;;;;;;;33.30;39.61;94252.50;1690731;83;21867;-58
2021/07/15 09:51:41;;;;;;;14.73;11.90;;;;;;;33.34;39.42;94242.79;1697537;82;21102;-56
2021/07/15 09:54:10;;;;;;;15.75;11.15;;;;;;;33.37;39.28;94243.73;1691871;83;21129;-55
2021/07/15 09:56:42;;;;;;;16.12;10.98;;;;;;;33.47;39.82;94243.70;1700065;83;21129;-57
2021/07/15 09:59:08;;;;;;;14.75;11.22;;;;;;;33.59;40.18;94244.50;1677920;83;21132;-59
2021/07/15 10:01:38;;;;;;;13.68;11.22;;;;;;;33.68;39.20;94235.14;1688864;83;21018;-63
2021/07/15 10:04:06;;;;;;;11.93;10.08;;;;;;;33.74;39.96;94237.75;1675630;84;21025;-58
2021/07/15 10:06:47;;;;;;;12.15;10.63;;;;;;;33.80;40.43;94240.24;1689888;83;21053;-57
2021/07/15 10:09:30;;;;;;;15.58;10.48;;;;;;;33.89;40.06;94249.43;1679653;83;21058;-59
2021/07/15 10:11:58;;;;;;;15.32;10.72;;;;;;;33.96;40.95;94242.81;1691296;83;21093;-58
2021/07/15 10:14:40;;;;;;;13.32;11.33;;;;;;;34.04;40.81;94247.65;1692571;83;21444;-59
2021/07/15 10:17:08;;;;;;;14.30;10.48;;;;;;;34.12;41.27;94241.72;1685196;83;21035;-58
2021/07/15 10:19:35;;;;;;;15.35;11.45;;;;;;;34.25;39.98;94238.30;1704608;82;21112;-55
2021/07/15 10:22:10;;;;;;;12.98;10.40;;;;;;;34.32;39.37;94240.94;1689107;83;21098;-57
2021/07/15 10:24:37;;;;;;;12.98;10.90;;;;;;;34.41;39.29;94235.83;1677009;84;21652;-55
2021/07/15 10:27:11;;;;;;;15.43;11.38;;;;;;;34.43;39.44;94232.34;1658379;85;21097;-60
2021/07/15 10:29:40;;;;;;;14.25;11.50;;;;;;;34.45;39.02;94236.75;1693833;83;21561;-57
2021/07/15 10:32:08;;;;;;;18.05;12.33;;;;;;;34.53;40.04;94237.28;1712782;83;21508;-58
2021/07/15 10:34:35;;;;;;;19.95;11.95;;;;;;;34.68;39.64;94236.16;1685036;83;21158;-58
2021/07/15 10:37:03;;;;;;;12.40;11.10;;;;;;;34.84;40.37;94233.59;1658931;82;21103;-57
2021/07/15 10:39:31;;;;;;;13.13;11.30;;;;;;;35.01;40.74;94225.38;1715027;83;21006;-56
2021/07/15 10:42:00;;;;;;;15.00;12.28;;;;;;;35.18;39.85;94229.34;1693209;82;22350;-56
2021/07/15 10:44:27;;;;;;;18.05;11.75;;;;;;;35.37;40.95;94233.37;1668112;83;21054;-55
2021/07/15 10:46:57;;;;;;;15.10;12.73;;;;;;;35.68;39.02;94231.66;1694232;83;21506;-58
2021/07/15 10:49:24;;;;;;;16.65;10.85;;;;;;;35.90;38.54;94230.87;1713805;82;21033;-59
2021/07/15 10:51:56;;;;;;;21.82;11.90;;;;;;;36.15;39.35;94230.93;1686693;83;21038;-63
2021/07/15 10:54:24;;;;;;;17.73;11.78;;;;;;;36.43;38.58;94232.56;1696317;83;21316;-61
2021/07/15 10:56:53;;;;;;;12.68;11.33;;;;;;;36.59;37.89;94222.03;1703960;82;21066;-64
2021/07/15 10:59:26;;;;;;;17.98;11.70;;;;;;;36.64;38.01;94228.77;1704153;82;21011;-63
2021/07/15 11:01:55;;;;;;;14.70;12.20;;;;;;;36.83;37.17;94224.09;1687838;82;21064;-57
2021/07/15 11:04:37;;;;;;;22.20;11.83;;;;;;;36.99;36.00;94221.39;1685841;83;21103;-58
2021/07/15 11:07:20;;;;;;;16.93;11.57;;;;;;;37.11;36.45;94229.23;1713677;83;21069;-59
2021/07/15 11:09:50;;;;;;;12.30;10.45;;;;;;;37.19;35.55;94231.12;1692633;83;21553;-61
2021/07/15 11:12:32;;;;;;;12.68;10.93;;;;;;;37.21;36.20;94234.09;1691932;82;21865;-61
2021/07/15 11:15:05;;;;;;;13.43;11.28;;;;;;;37.27;36.01;94232.97;1697524;82;21037;-59
2021/07/15 11:17:37;;;;;;;14.43;11.65;;;;;;;37.50;35.58;94223.50;1698544;83;21441;-60
2021/07/15 11:20:28;;;;;;;17.95;11.73;;;;;;;37.76;34.09;94230.63;1693374;83;21759;-66
2021/07/15 11:23:01;;;;;;;15.25;10.93;;;;;;;37.87;34.76;94232.63;1658946;85;21525;-60
2021/07/15 11:25:33;;;;;;;11.95;10.65;;;;;;;37.99;34.39;94232.52;1696423;83;21113;-67
2021/07/15 11:28:18;;;;;;;11.93;9.93;;;;;;;38.13;33.77;94241.19;1694296;82;21119;-60
2021/07/15 11:30:50;;;;;;;12.15;9.48;;;;;;;38.24;34.54;94238.17;1692748;83;20990;-62
2021/07/15 11:33:26;;;;;;;18.32;10.93;;;;;;;38.46;33.46;94239.29;1701632;83;21009;-66